Time;durP1;ratioP1;P1;durP2;ratioP2;P2;SDS_P1;SDS_P2;PMS_P1;PMS_P2;Temp;Humidity;BMP_temperature;BMP_pressure;BME280_temperature;BME280_humidity;BME280_pressure;Samples;Min_cycle;Max_cycle;Signal;HPM_P1;HPM_P2
2022/04/30 00:02:14;;;;;;;13.60;10.93;;;;;;;;;;5081264;28;20216;-65
2022/04/30 00:04:44;;;;;;;12.57;11.23;;;;;;;;;;5078177;28;20211;-65
2022/04/30 00:07:13;;;;;;;11.63;10.43;;;;;;;;;;5058928;28;20224;-65
2022/04/30 00:09:42;;;;;;;12.70;10.50;;;;;;;;;;5078023;28;20235;-65
2022/04/30 00:12:12;;;;;;;11.80;9.80;;;;;;;;;;5080669;28;20274;-63
2022/04/30 00:14:39;;;;;;;12.23;10.73;;;;;;;;;;5079232;28;20244;-64
2022/04/30 00:17:09;;;;;;;13.50;11.03;;;;;;;;;;5077423;28;20228;-64
2022/04/30 00:19:36;;;;;;;19.37;12.63;;;;;;;;;;5064496;28;20721;-64
2022/04/30 00:22:03;;;;;;;15.67;10.80;;;;;;;;;;5064922;28;20201;-64
2022/04/30 00:24:31;;;;;;;14.80;12.00;;;;;;;;;;5065677;28;20220;-65
2022/04/30 00:27:01;;;;;;;15.43;12.97;;;;;;;;;;5056112;28;20255;-64
2022/04/30 00:29:29;;;;;;;27.23;17.10;;;;;;;;;;5059422;28;20209;-65
2022/04/30 00:31:57;;;;;;;21.53;15.87;;;;;;;;;;5064161;28;20669;-64
2022/04/30 00:34:25;;;;;;;18.87;14.30;;;;;;;;;;5064398;28;21482;-65
2022/04/30 00:36:52;;;;;;;14.30;12.20;;;;;;;;;;5061690;28;20220;-65
2022/04/30 00:39:20;;;;;;;20.10;14.50;;;;;;;;;;5060982;28;20208;-63
2022/04/30 00:41:48;;;;;;;17.77;14.03;;;;;;;;;;5062486;28;20650;-65
2022/04/30 00:44:19;;;;;;;18.00;13.87;;;;;;;;;;5060364;28;20283;-64
2022/04/30 00:46:46;;;;;;;14.47;12.53;;;;;;;;;;5056809;28;20278;-64
2022/04/30 00:49:14;;;;;;;16.97;11.97;;;;;;;;;;5071625;28;20208;-65
2022/04/30 00:51:43;;;;;;;13.03;11.27;;;;;;;;;;5064490;28;20204;-65
2022/04/30 00:54:12;;;;;;;14.80;11.67;;;;;;;;;;5064960;28;20676;-65
2022/04/30 00:56:44;;;;;;;15.00;11.20;;;;;;;;;;5064097;28;20273;-65
2022/04/30 00:59:17;;;;;;;12.10;10.90;;;;;;;;;;5057032;28;20250;-64
2022/04/30 01:01:45;;;;;;;16.57;12.87;;;;;;;;;;5071330;28;20217;-64
2022/04/30 01:04:14;;;;;;;13.87;11.57;;;;;;;;;;5060324;28;20205;-64
2022/04/30 01:06:41;;;;;;;15.03;12.43;;;;;;;;;;5060701;28;20717;-64
2022/04/30 01:09:11;;;;;;;14.97;12.47;;;;;;;;;;5058136;28;20689;-62
2022/04/30 01:11:41;;;;;;;14.17;11.50;;;;;;;;;;5064245;28;20580;-65
2022/04/30 01:14:08;;;;;;;14.17;11.33;;;;;;;;;;5061225;28;20205;-65
2022/04/30 01:16:36;;;;;;;12.37;11.00;;;;;;;;;;5067426;28;20934;-64
2022/04/30 01:19:05;;;;;;;12.50;10.63;;;;;;;;;;5072865;28;20717;-64
2022/04/30 01:21:34;;;;;;;11.83;10.43;;;;;;;;;;5082006;28;20205;-65
2022/04/30 01:24:02;;;;;;;12.00;10.13;;;;;;;;;;5065544;28;20290;-64
2022/04/30 01:26:29;;;;;;;14.20;11.97;;;;;;;;;;5061681;28;20266;-65
2022/04/30 01:28:57;;;;;;;13.67;11.23;;;;;;;;;;5068362;28;20200;-65
2022/04/30 01:39:52;;;;;;;16.10;13.10;;;;;;;;;;5069162;28;20209;-62
2022/04/30 01:42:19;;;;;;;15.43;13.27;;;;;;;;;;5072430;28;20699;-64
2022/04/30 01:44:47;;;;;;;15.00;12.23;;;;;;;;;;5058049;28;20196;-65
2022/04/30 01:47:15;;;;;;;12.37;11.07;;;;;;;;;;5055194;28;20570;-64
2022/04/30 01:49:43;;;;;;;12.47;10.83;;;;;;;;;;5058709;28;20197;-65
2022/04/30 01:52:13;;;;;;;12.53;11.23;;;;;;;;;;5072542;28;20217;-64
2022/04/30 01:54:40;;;;;;;11.60;10.40;;;;;;;;;;5070227;28;20829;-64
2022/04/30 01:57:08;;;;;;;11.20;10.10;;;;;;;;;;5070759;28;20739;-65
2022/04/30 01:59:36;;;;;;;12.93;11.00;;;;;;;;;;5060649;28;20209;-64
2022/04/30 02:02:04;;;;;;;14.83;11.70;;;;;;;;;;5064324;28;20208;-64
2022/04/30 02:04:32;;;;;;;10.37;9.37;;;;;;;;;;5063402;28;20201;-64
2022/04/30 02:07:01;;;;;;;12.40;10.70;;;;;;;;;;5057169;28;20274;-66
2022/04/30 02:09:29;;;;;;;10.17;9.17;;;;;;;;;;5058460;28;20241;-64
2022/04/30 02:11:59;;;;;;;10.93;9.87;;;;;;;;;;5058631;28;20815;-64
2022/04/30 02:14:30;;;;;;;11.67;9.77;;;;;;;;;;5059435;28;20213;-65
2022/04/30 02:17:01;;;;;;;10.33;9.10;;;;;;;;;;5061238;28;20233;-65
2022/04/30 02:20:18;;;;;;;10.57;9.43;;;;;;;;;;5075889;28;20193;-65
2022/04/30 02:22:18;;;;;;;10.27;9.17;;;;;;;;;;5078447;28;20205;-65
2022/04/30 02:24:46;;;;;;;9.90;8.87;;;;;;;;;;5060724;28;20204;-64
2022/04/30 02:27:14;;;;;;;12.67;8.70;;;;;;;;;;5061157;28;20274;-63
2022/04/30 02:29:41;;;;;;;10.43;9.33;;;;;;;;;;5067861;28;20204;-64
2022/04/30 02:32:09;;;;;;;9.87;8.87;;;;;;;;;;5078562;28;20205;-64
2022/04/30 02:34:36;;;;;;;9.33;8.43;;;;;;;;;;5060820;28;20659;-65
2022/04/30 02:37:04;;;;;;;9.93;8.63;;;;;;;;;;5066988;28;20251;-63
2022/04/30 02:39:32;;;;;;;10.20;8.87;;;;;;;;;;5060037;28;20619;-64
2022/04/30 02:41:59;;;;;;;9.67;8.57;;;;;;;;;;5063269;28;20201;-65
2022/04/30 02:44:26;;;;;;;18.07;13.63;;;;;;;;;;5063654;28;20296;-63
2022/04/30 02:46:55;;;;;;;8.60;7.80;;;;;;;;;;5067063;28;20281;-64
2022/04/30 02:49:22;;;;;;;12.93;9.63;;;;;;;;;;5055336;28;20671;-64
2022/04/30 02:51:50;;;;;;;11.20;9.80;;;;;;;;;;5062789;28;20559;-65
2022/04/30 02:54:17;;;;;;;12.33;9.17;;;;;;;;;;5074866;28;20205;-63
2022/04/30 02:56:45;;;;;;;12.83;10.70;;;;;;;;;;5066506;28;20225;-66
2022/04/30 03:01:58;;;;;;;10.27;9.27;;;;;;;;;;5079111;28;20201;-65
2022/04/30 03:04:26;;;;;;;10.43;9.20;;;;;;;;;;5066386;28;20570;-63
2022/04/30 03:06:53;;;;;;;8.27;7.40;;;;;;;;;;5070430;28;20615;-65
2022/04/30 03:09:20;;;;;;;9.17;7.73;;;;;;;;;;5065366;28;20217;-63
2022/04/30 03:11:48;;;;;;;8.80;7.90;;;;;;;;;;5072104;28;20201;-65
2022/04/30 03:14:15;;;;;;;8.17;7.33;;;;;;;;;;5065345;28;20205;-65
2022/04/30 03:22:20;;;;;;;13.10;10.73;;;;;;;;;;5087113;28;20204;-64
2022/04/30 03:24:47;;;;;;;10.80;9.33;;;;;;;;;;5070459;28;20682;-64
2022/04/30 03:27:17;;;;;;;10.93;9.80;;;;;;;;;;5066046;28;20295;-65
2022/04/30 03:29:46;;;;;;;12.73;11.43;;;;;;;;;;5069454;28;20209;-64
2022/04/30 03:32:14;;;;;;;15.13;12.07;;;;;;;;;;5069721;28;20208;-64
2022/04/30 03:34:41;;;;;;;10.70;9.63;;;;;;;;;;5066407;28;20210;-64
2022/04/30 03:37:09;;;;;;;11.27;10.07;;;;;;;;;;5062437;28;20237;-65
2022/04/30 03:39:37;;;;;;;12.60;10.57;;;;;;;;;;5064424;28;20663;-64
2022/04/30 03:42:05;;;;;;;13.33;11.87;;;;;;;;;;5063627;28;20205;-65
2022/04/30 03:44:32;;;;;;;18.10;14.47;;;;;;;;;;5062842;28;20647;-65
2022/04/30 03:47:00;;;;;;;23.67;16.13;;;;;;;;;;5067799;28;20232;-65
2022/04/30 03:49:27;;;;;;;22.20;16.07;;;;;;;;;;5065058;28;20205;-65
2022/04/30 03:51:54;;;;;;;22.33;16.90;;;;;;;;;;5065160;28;20269;-65
2022/04/30 03:54:22;;;;;;;20.07;17.57;;;;;;;;;;5062311;28;20286;-64
2022/04/30 03:56:49;;;;;;;19.83;16.13;;;;;;;;;;5078084;28;20220;-64
2022/04/30 03:59:17;;;;;;;16.83;14.97;;;;;;;;;;5065028;28;20208;-65
2022/04/30 04:01:44;;;;;;;19.40;14.90;;;;;;;;;;5064712;28;20201;-62
2022/04/30 04:04:12;;;;;;;17.70;15.40;;;;;;;;;;5059684;28;20205;-63
2022/04/30 04:06:42;;;;;;;21.83;17.13;;;;;;;;;;5062166;28;20232;-64
2022/04/30 04:09:10;;;;;;;32.97;22.83;;;;;;;;;;5055557;28;20229;-65
2022/04/30 04:11:37;;;;;;;27.63;20.30;;;;;;;;;;5058407;28;20202;-65
2022/04/30 04:19:37;;;;;;;35.40;26.73;;;;;;;;;;5073318;28;20210;-65
2022/04/30 04:22:04;;;;;;;32.10;23.40;;;;;;;;;;5061696;28;20205;-65
2022/04/30 04:27:18;;;;;;;34.70;24.17;;;;;;;;;;5081438;28;20722;-65
2022/04/30 04:29:46;;;;;;;32.43;23.57;;;;;;;;;;5052286;28;20220;-65
2022/04/30 04:32:14;;;;;;;31.97;24.60;;;;;;;;;;5075469;28;20258;-65
2022/04/30 04:34:41;;;;;;;31.53;23.63;;;;;;;;;;5061755;28;20246;-64
2022/04/30 04:37:16;;;;;;;29.63;23.90;;;;;;;;;;5075855;28;20228;-65
2022/04/30 04:39:43;;;;;;;30.10;23.23;;;;;;;;;;5062261;28;20209;-64
2022/04/30 04:42:10;;;;;;;30.93;21.67;;;;;;;;;;5066018;28;20201;-65
2022/04/30 04:44:38;;;;;;;30.87;24.33;;;;;;;;;;5058625;28;20193;-63
2022/04/30 04:47:05;;;;;;;33.83;24.60;;;;;;;;;;5080579;28;20236;-63
2022/04/30 04:49:33;;;;;;;31.40;22.90;;;;;;;;;;5064385;28;20617;-65
2022/04/30 04:52:01;;;;;;;30.90;21.57;;;;;;;;;;5061351;28;21448;-65
2022/04/30 04:54:29;;;;;;;25.80;21.60;;;;;;;;;;5065262;28;20669;-64
2022/04/30 04:56:56;;;;;;;29.20;22.07;;;;;;;;;;5063191;28;20766;-65
2022/04/30 04:59:24;;;;;;;30.53;23.07;;;;;;;;;;5062394;28;20209;-65
2022/04/30 05:01:52;;;;;;;29.27;23.27;;;;;;;;;;5064724;28;20552;-64
2022/04/30 05:04:20;;;;;;;29.63;25.37;;;;;;;;;;5081778;28;20326;-65
2022/04/30 05:06:51;;;;;;;31.07;23.70;;;;;;;;;;5068239;28;20866;-65
2022/04/30 05:09:19;;;;;;;30.47;23.57;;;;;;;;;;5063766;28;20215;-63
2022/04/30 05:11:46;;;;;;;31.40;24.07;;;;;;;;;;5058181;28;20209;-64
2022/04/30 05:14:14;;;;;;;32.13;23.43;;;;;;;;;;5064376;28;20204;-65
2022/04/30 05:16:41;;;;;;;28.67;22.83;;;;;;;;;;5062729;28;20235;-65
2022/04/30 05:19:09;;;;;;;32.97;24.70;;;;;;;;;;5061143;28;20201;-65
2022/04/30 05:21:36;;;;;;;34.27;23.73;;;;;;;;;;5066602;28;20208;-65
2022/04/30 05:24:04;;;;;;;34.90;25.23;;;;;;;;;;5063846;28;20725;-63
2022/04/30 05:26:32;;;;;;;31.73;23.27;;;;;;;;;;5077868;28;20232;-65
2022/04/30 05:29:00;;;;;;;28.60;22.97;;;;;;;;;;5062583;28;20201;-65
2022/04/30 05:31:27;;;;;;;36.97;28.43;;;;;;;;;;5063752;28;20227;-65
2022/04/30 05:33:54;;;;;;;29.80;21.93;;;;;;;;;;5064126;28;20212;-65
2022/04/30 05:36:22;;;;;;;30.70;22.00;;;;;;;;;;5062373;28;20275;-65
2022/04/30 05:38:51;;;;;;;28.63;22.87;;;;;;;;;;5060697;28;20599;-64
2022/04/30 05:41:18;;;;;;;29.83;23.27;;;;;;;;;;5060771;28;20209;-65
2022/04/30 05:43:51;;;;;;;25.47;21.30;;;;;;;;;;5077158;28;20217;-65
2022/04/30 05:46:19;;;;;;;27.20;21.50;;;;;;;;;;5072391;28;20224;-64
2022/04/30 05:48:46;;;;;;;32.10;22.40;;;;;;;;;;5067446;28;20209;-63
2022/04/30 05:51:14;;;;;;;27.67;21.23;;;;;;;;;;5067647;28;20206;-65
2022/04/30 05:53:41;;;;;;;29.87;22.13;;;;;;;;;;5067235;28;20197;-65
2022/04/30 05:56:08;;;;;;;27.83;22.93;;;;;;;;;;5063084;28;20227;-63
2022/04/30 05:58:36;;;;;;;27.33;21.90;;;;;;;;;;5068440;28;20197;-65
2022/04/30 06:01:03;;;;;;;28.73;23.03;;;;;;;;;;5066626;28;20258;-65
2022/04/30 06:03:33;;;;;;;30.77;23.37;;;;;;;;;;5062488;28;20213;-65
2022/04/30 06:06:01;;;;;;;32.10;24.80;;;;;;;;;;5067033;28;20713;-66
2022/04/30 06:08:28;;;;;;;30.93;23.47;;;;;;;;;;5084086;28;20213;-63
2022/04/30 06:10:56;;;;;;;27.77;21.90;;;;;;;;;;5066738;28;20219;-65
2022/04/30 06:13:24;;;;;;;26.50;21.67;;;;;;;;;;5065795;28;20583;-63
2022/04/30 06:15:52;;;;;;;28.10;21.97;;;;;;;;;;5067110;28;20691;-65
2022/04/30 06:18:20;;;;;;;27.33;22.00;;;;;;;;;;5067691;28;20197;-65
2022/04/30 06:20:47;;;;;;;26.07;21.23;;;;;;;;;;5062057;28;20300;-64
2022/04/30 06:23:18;;;;;;;25.67;20.73;;;;;;;;;;5098173;28;20786;-66
2022/04/30 06:25:45;;;;;;;26.50;21.40;;;;;;;;;;5081078;28;20258;-63
2022/04/30 06:28:13;;;;;;;23.97;19.17;;;;;;;;;;5050804;28;20223;-66
2022/04/30 06:30:44;;;;;;;23.70;19.03;;;;;;;;;;5050047;28;20247;-65
2022/04/30 06:33:11;;;;;;;27.93;21.27;;;;;;;;;;5058584;28;20246;-66
2022/04/30 06:35:39;;;;;;;25.77;21.13;;;;;;;;;;5056323;28;20197;-64
2022/04/30 06:38:06;;;;;;;26.13;20.20;;;;;;;;;;5059775;28;20614;-65
2022/04/30 06:40:33;;;;;;;23.60;19.33;;;;;;;;;;5066772;28;20250;-65
2022/04/30 06:43:02;;;;;;;23.17;19.03;;;;;;;;;;5067468;28;20220;-65
2022/04/30 06:45:32;;;;;;;27.40;20.07;;;;;;;;;;5063433;28;20205;-64
2022/04/30 06:47:59;;;;;;;22.50;19.30;;;;;;;;;;5060536;28;20216;-65
2022/04/30 06:50:27;;;;;;;23.77;19.07;;;;;;;;;;5083968;28;20231;-64
2022/04/30 06:58:41;;;;;;;24.73;20.47;;;;;;;;;;5077182;28;20212;-64
2022/04/30 07:03:55;;;;;;;21.67;18.80;;;;;;;;;;5076827;28;20745;-65
2022/04/30 07:06:22;;;;;;;23.10;18.03;;;;;;;;;;5054183;28;20220;-63
2022/04/30 07:08:50;;;;;;;26.70;21.10;;;;;;;;;;5068860;28;20258;-64
2022/04/30 07:11:17;;;;;;;34.40;26.00;;;;;;;;;;5074069;28;20699;-65
2022/04/30 07:13:44;;;;;;;23.43;19.80;;;;;;;;;;5048271;28;20271;-65
2022/04/30 07:16:12;;;;;;;24.00;19.60;;;;;;;;;;5073492;28;20229;-65
2022/04/30 07:18:39;;;;;;;27.93;21.10;;;;;;;;;;5061470;28;20228;-64
2022/04/30 07:21:07;;;;;;;23.73;20.27;;;;;;;;;;5060015;28;20209;-64
2022/04/30 07:23:34;;;;;;;24.67;17.83;;;;;;;;;;5043066;28;20201;-62
2022/04/30 07:26:02;;;;;;;20.37;17.53;;;;;;;;;;5046936;28;20275;-64
2022/04/30 07:28:35;;;;;;;19.30;17.13;;;;;;;;;;5061533;28;20604;-65
2022/04/30 07:31:03;;;;;;;20.77;17.53;;;;;;;;;;5074192;28;20212;-66
2022/04/30 07:33:31;;;;;;;18.37;16.40;;;;;;;;;;5059292;28;20201;-65
2022/04/30 07:36:01;;;;;;;18.60;16.47;;;;;;;;;;5060178;28;20757;-65
2022/04/30 07:38:28;;;;;;;19.93;17.37;;;;;;;;;;5058921;28;20269;-64
2022/04/30 07:40:56;;;;;;;19.27;16.97;;;;;;;;;;5058317;28;20213;-65
2022/04/30 07:43:23;;;;;;;17.77;15.87;;;;;;;;;;5062078;28;20651;-65
2022/04/30 07:45:51;;;;;;;19.37;16.30;;;;;;;;;;5059984;28;20237;-65
2022/04/30 07:48:18;;;;;;;18.20;16.30;;;;;;;;;;5049691;28;20206;-65
2022/04/30 07:50:46;;;;;;;20.20;17.17;;;;;;;;;;5069943;28;20666;-65
2022/04/30 07:53:14;;;;;;;18.70;16.70;;;;;;;;;;5055018;28;20200;-64
2022/04/30 07:55:45;;;;;;;18.80;16.50;;;;;;;;;;5047454;28;20224;-64
2022/04/30 07:58:13;;;;;;;18.60;16.53;;;;;;;;;;5055133;28;20311;-65
2022/04/30 08:00:40;;;;;;;19.23;16.17;;;;;;;;;;5049032;28;21338;-66
2022/04/30 08:03:08;;;;;;;20.40;17.03;;;;;;;;;;5051592;28;20602;-66
2022/04/30 08:05:36;;;;;;;17.63;15.70;;;;;;;;;;5052826;28;20216;-65
2022/04/30 08:08:03;;;;;;;20.47;17.30;;;;;;;;;;5067329;28;20201;-63
2022/04/30 08:10:30;;;;;;;20.30;18.10;;;;;;;;;;5054528;28;20205;-65
2022/04/30 08:12:59;;;;;;;20.30;16.57;;;;;;;;;;5056733;28;20299;-65
2022/04/30 08:15:27;;;;;;;17.80;16.00;;;;;;;;;;5038520;28;20217;-65
2022/04/30 08:17:55;;;;;;;18.80;16.03;;;;;;;;;;5043314;28;20228;-64
2022/04/30 08:20:22;;;;;;;18.43;16.53;;;;;;;;;;5033390;28;20207;-65
2022/04/30 08:22:50;;;;;;;17.67;15.83;;;;;;;;;;5039943;28;20711;-65
2022/04/30 08:25:18;;;;;;;17.77;15.97;;;;;;;;;;5030041;28;20201;-66
2022/04/30 08:27:45;;;;;;;19.47;17.37;;;;;;;;;;5026829;28;20233;-65
2022/04/30 08:30:13;;;;;;;19.13;16.93;;;;;;;;;;5023214;28;20234;-64
2022/04/30 08:32:41;;;;;;;19.13;17.07;;;;;;;;;;5012193;28;20217;-64
2022/04/30 08:35:08;;;;;;;24.90;17.67;;;;;;;;;;5042646;28;20278;-62
2022/04/30 08:37:55;;;;;;;18.40;16.50;;;;;;;;;;5047771;28;20248;-62
2022/04/30 08:40:24;;;;;;;20.87;17.97;;;;;;;;;;5033213;28;20201;-65
2022/04/30 08:42:52;;;;;;;18.33;16.37;;;;;;;;;;5048299;28;20807;-63
2022/04/30 08:45:22;;;;;;;16.67;14.97;;;;;;;;;;5040725;28;20251;-64
2022/04/30 08:47:51;;;;;;;18.60;16.37;;;;;;;;;;5046500;28;20697;-62
2022/04/30 08:50:18;;;;;;;18.33;16.37;;;;;;;;;;5045882;28;20217;-65
2022/04/30 08:52:46;;;;;;;18.07;15.63;;;;;;;;;;5046266;28;20232;-64
2022/04/30 08:55:13;;;;;;;17.70;15.87;;;;;;;;;;5045930;28;20251;-64
2022/04/30 08:57:40;;;;;;;17.63;15.10;;;;;;;;;;5041888;28;20229;-64
2022/04/30 09:00:08;;;;;;;17.77;15.97;;;;;;;;;;5037408;28;20691;-64
2022/04/30 09:02:36;;;;;;;17.60;15.80;;;;;;;;;;5046754;28;20217;-64
2022/04/30 09:05:03;;;;;;;17.60;14.93;;;;;;;;;;5045873;28;20662;-62
2022/04/30 09:07:33;;;;;;;16.67;14.97;;;;;;;;;;5050441;28;20714;-65
2022/04/30 09:10:01;;;;;;;16.53;14.83;;;;;;;;;;5070009;28;20265;-64
2022/04/30 09:12:31;;;;;;;16.80;14.97;;;;;;;;;;5062932;28;20213;-63
2022/04/30 09:14:59;;;;;;;16.90;14.57;;;;;;;;;;5065656;28;20258;-65
2022/04/30 09:17:27;;;;;;;14.73;13.07;;;;;;;;;;5059742;28;20285;-63
2022/04/30 09:19:56;;;;;;;16.30;14.63;;;;;;;;;;5072639;28;20316;-64
2022/04/30 09:22:31;;;;;;;15.07;13.57;;;;;;;;;;5064206;28;20209;-64
2022/04/30 09:24:59;;;;;;;14.97;13.37;;;;;;;;;;5070078;28;20214;-62
2022/04/30 09:27:51;;;;;;;15.30;13.70;;;;;;;;;;5067206;28;20233;-64
2022/04/30 09:30:29;;;;;;;16.00;14.33;;;;;;;;;;5062057;28;20216;-64
2022/04/30 09:32:58;;;;;;;17.20;14.27;;;;;;;;;;5062555;28;20586;-64
2022/04/30 09:38:12;;;;;;;18.00;15.23;;;;;;;;;;5079896;28;20232;-64
2022/04/30 09:40:39;;;;;;;19.13;16.17;;;;;;;;;;5063344;28;20215;-64
2022/04/30 09:43:16;;;;;;;18.93;16.33;;;;;;;;;;5075626;28;20209;-63
2022/04/30 09:45:43;;;;;;;20.97;16.37;;;;;;;;;;5072647;28;20253;-64
2022/04/30 09:54:00;;;;;;;19.50;15.57;;;;;;;;;;5080254;28;20237;-65
2022/04/30 09:56:34;;;;;;;17.07;15.30;;;;;;;;;;5053801;28;20225;-63
2022/04/30 09:59:04;;;;;;;18.10;15.17;;;;;;;;;;5078877;28;20201;-62
2022/04/30 10:01:34;;;;;;;17.80;15.90;;;;;;;;;;5075922;28;20227;-65
2022/04/30 10:04:07;;;;;;;18.33;15.13;;;;;;;;;;5062651;28;20204;-64
2022/04/30 10:06:41;;;;;;;17.67;15.20;;;;;;;;;;5062784;28;20635;-64
2022/04/30 10:09:21;;;;;;;16.00;14.30;;;;;;;;;;5068143;28;20311;-64
2022/04/30 10:12:00;;;;;;;16.70;14.57;;;;;;;;;;5054432;28;20221;-64
2022/04/30 10:14:30;;;;;;;15.73;13.83;;;;;;;;;;5061441;28;20307;-64
2022/04/30 10:17:12;;;;;;;15.97;14.30;;;;;;;;;;5061918;28;20228;-65
2022/04/30 10:19:41;;;;;;;15.03;13.43;;;;;;;;;;5063247;28;20619;-64
2022/04/30 10:22:11;;;;;;;13.87;12.43;;;;;;;;;;5051280;28;20209;-63
2022/04/30 10:24:42;;;;;;;14.23;12.73;;;;;;;;;;5056720;28;20255;-63
2022/04/30 10:27:10;;;;;;;13.73;12.33;;;;;;;;;;5054014;28;20229;-64
2022/04/30 10:29:37;;;;;;;12.80;11.50;;;;;;;;;;5060959;28;20205;-64
2022/04/30 10:32:05;;;;;;;14.47;12.97;;;;;;;;;;5051498;28;20205;-64
2022/04/30 10:34:33;;;;;;;16.50;14.73;;;;;;;;;;5068362;28;20213;-64
2022/04/30 10:37:01;;;;;;;12.60;11.40;;;;;;;;;;5066803;28;20220;-65
2022/04/30 10:39:29;;;;;;;12.07;10.90;;;;;;;;;;5057271;28;20204;-65
2022/04/30 10:41:57;;;;;;;12.07;10.67;;;;;;;;;;5062149;28;20236;-65
2022/04/30 10:44:28;;;;;;;13.13;11.80;;;;;;;;;;5062602;28;20258;-63
2022/04/30 10:46:56;;;;;;;13.40;12.10;;;;;;;;;;5062322;28;20733;-64
2022/04/30 10:49:23;;;;;;;13.07;11.60;;;;;;;;;;5061495;28;20204;-63
2022/04/30 10:51:55;;;;;;;12.40;11.10;;;;;;;;;;5045967;28;20266;-63
2022/04/30 10:54:23;;;;;;;11.57;10.37;;;;;;;;;;5061002;28;20602;-64
2022/04/30 10:57:01;;;;;;;11.73;10.57;;;;;;;;;;5066297;28;20714;-63
2022/04/30 10:59:29;;;;;;;12.37;11.17;;;;;;;;;;5053247;28;20615;-64
2022/04/30 11:01:56;;;;;;;10.03;9.03;;;;;;;;;;5039750;28;20204;-63
2022/04/30 11:04:24;;;;;;;10.63;9.53;;;;;;;;;;5042649;28;20209;-62
2022/04/30 11:06:53;;;;;;;12.50;11.20;;;;;;;;;;5053989;28;20228;-64
2022/04/30 11:09:21;;;;;;;10.03;9.03;;;;;;;;;;5043205;28;20301;-63
2022/04/30 11:11:49;;;;;;;12.10;10.67;;;;;;;;;;5044754;28;22321;-64
2022/04/30 11:14:17;;;;;;;11.53;10.40;;;;;;;;;;5041550;28;20201;-62
2022/04/30 11:16:45;;;;;;;10.67;9.67;;;;;;;;;;5038128;28;20224;-65
2022/04/30 11:19:14;;;;;;;8.80;7.60;;;;;;;;;;5042026;28;20314;-64
2022/04/30 11:21:41;;;;;;;10.63;9.47;;;;;;;;;;5040507;28;20197;-62
2022/04/30 11:24:09;;;;;;;10.10;9.10;;;;;;;;;;5034257;28;20196;-64
2022/04/30 11:26:37;;;;;;;9.63;8.73;;;;;;;;;;5057971;28;20228;-63
2022/04/30 11:29:12;;;;;;;9.57;8.60;;;;;;;;;;5058293;28;20228;-63
2022/04/30 11:31:39;;;;;;;9.63;8.73;;;;;;;;;;5047618;28;20254;-64
2022/04/30 11:34:15;;;;;;;10.40;9.40;;;;;;;;;;5046402;28;21135;-63
2022/04/30 11:36:47;;;;;;;10.43;9.40;;;;;;;;;;5031345;28;20758;-64
2022/04/30 11:39:15;;;;;;;8.53;7.83;;;;;;;;;;5041348;28;20231;-64
2022/04/30 11:41:48;;;;;;;9.53;8.63;;;;;;;;;;5043013;28;20204;-64
2022/04/30 11:44:17;;;;;;;8.83;8.03;;;;;;;;;;5044011;28;20331;-64
2022/04/30 11:46:45;;;;;;;11.03;8.37;;;;;;;;;;5039125;28;20286;-63
2022/04/30 11:49:20;;;;;;;8.30;7.37;;;;;;;;;;5042750;28;20256;-64
2022/04/30 11:52:08;;;;;;;8.17;7.47;;;;;;;;;;5040980;28;20267;-63
2022/04/30 11:54:39;;;;;;;7.97;7.17;;;;;;;;;;5036950;28;21072;-64
2022/04/30 11:57:07;;;;;;;7.67;6.97;;;;;;;;;;5049603;28;20248;-64
2022/04/30 11:59:37;;;;;;;8.00;7.20;;;;;;;;;;5042779;28;20212;-63
2022/04/30 12:02:11;;;;;;;7.67;6.97;;;;;;;;;;5053660;28;21125;-63
2022/04/30 12:04:43;;;;;;;7.53;6.83;;;;;;;;;;5046096;28;20654;-65
2022/04/30 12:07:12;;;;;;;8.20;7.40;;;;;;;;;;5044411;28;20741;-65
2022/04/30 12:09:44;;;;;;;8.93;8.03;;;;;;;;;;5027232;28;20216;-64
2022/04/30 12:12:17;;;;;;;9.53;8.63;;;;;;;;;;5023720;28;20201;-64
2022/04/30 12:14:55;;;;;;;9.43;8.53;;;;;;;;;;5031521;28;20212;-64
2022/04/30 12:17:32;;;;;;;9.20;8.30;;;;;;;;;;5025705;28;20364;-64
2022/04/30 12:25:50;;;;;;;9.30;8.40;;;;;;;;;;5054536;28;20228;-64
2022/04/30 12:28:17;;;;;;;7.97;7.27;;;;;;;;;;5047545;28;20262;-62
2022/04/30 12:30:52;;;;;;;8.03;7.27;;;;;;;;;;5038268;28;20201;-65
2022/04/30 12:33:20;;;;;;;7.37;6.67;;;;;;;;;;5051136;28;20204;-64
2022/04/30 12:35:58;;;;;;;7.20;6.50;;;;;;;;;;5040986;28;20761;-63
2022/04/30 12:38:26;;;;;;;6.67;6.07;;;;;;;;;;5041823;28;20738;-64
2022/04/30 12:40:55;;;;;;;7.00;6.40;;;;;;;;;;5042462;28;20541;-64
2022/04/30 12:43:23;;;;;;;6.83;6.17;;;;;;;;;;5069668;28;20266;-64
2022/04/30 12:45:51;;;;;;;6.70;6.10;;;;;;;;;;5043092;28;20217;-63
2022/04/30 12:48:18;;;;;;;10.20;9.17;;;;;;;;;;5033758;28;20213;-63
2022/04/30 12:50:45;;;;;;;9.90;8.67;;;;;;;;;;5039442;28;20212;-64
2022/04/30 12:53:13;;;;;;;10.00;9.10;;;;;;;;;;5051936;28;20232;-64
2022/04/30 12:55:41;;;;;;;9.30;8.50;;;;;;;;;;5031616;28;20255;-66
2022/04/30 12:58:10;;;;;;;9.30;8.50;;;;;;;;;;5036157;28;20825;-64
2022/04/30 13:00:38;;;;;;;10.27;9.37;;;;;;;;;;5041352;28;20235;-64
2022/04/30 13:03:07;;;;;;;9.40;8.50;;;;;;;;;;5031040;28;20216;-63
2022/04/30 13:05:35;;;;;;;9.97;8.97;;;;;;;;;;5032364;28;20777;-64
2022/04/30 13:08:02;;;;;;;10.73;9.73;;;;;;;;;;5039702;28;20198;-64
2022/04/30 13:16:13;;;;;;;10.30;9.20;;;;;;;;;;5038808;28;20314;-64
2022/04/30 13:18:41;;;;;;;9.03;8.13;;;;;;;;;;5051720;28;20239;-64
2022/04/30 13:21:09;;;;;;;8.50;7.80;;;;;;;;;;5055814;28;20213;-65
2022/04/30 13:23:36;;;;;;;9.13;8.33;;;;;;;;;;5058155;28;20262;-64
2022/04/30 13:26:05;;;;;;;9.50;8.60;;;;;;;;;;5050193;28;20225;-64
2022/04/30 13:28:33;;;;;;;9.10;8.30;;;;;;;;;;5054163;28;20492;-65
2022/04/30 13:31:01;;;;;;;10.73;9.67;;;;;;;;;;5044435;28;20209;-64
2022/04/30 13:33:28;;;;;;;8.03;7.30;;;;;;;;;;5056702;28;20206;-64
2022/04/30 13:35:56;;;;;;;7.90;7.20;;;;;;;;;;5052852;28;20232;-65
2022/04/30 13:38:23;;;;;;;8.57;7.67;;;;;;;;;;5054751;28;20702;-65
2022/04/30 13:40:50;;;;;;;9.37;8.47;;;;;;;;;;5057012;28;20197;-65
2022/04/30 13:43:18;;;;;;;8.93;8.13;;;;;;;;;;5053462;28;20204;-63
2022/04/30 13:45:45;;;;;;;8.60;7.80;;;;;;;;;;5047158;28;20201;-64
2022/04/30 13:48:13;;;;;;;8.53;7.73;;;;;;;;;;5052477;28;20212;-65
2022/04/30 13:50:40;;;;;;;8.20;7.50;;;;;;;;;;5051439;28;20638;-62
2022/04/30 13:53:07;;;;;;;8.57;7.77;;;;;;;;;;5054151;28;20213;-65
2022/04/30 13:55:35;;;;;;;8.67;7.87;;;;;;;;;;5059666;28;20220;-63
2022/04/30 13:58:03;;;;;;;8.03;7.33;;;;;;;;;;5051508;28;20237;-65
2022/04/30 14:00:30;;;;;;;8.73;7.93;;;;;;;;;;5051791;28;20622;-65
2022/04/30 14:02:58;;;;;;;8.50;7.63;;;;;;;;;;5057560;28;20209;-62
2022/04/30 14:05:26;;;;;;;8.00;7.20;;;;;;;;;;5057625;28;20201;-65
2022/04/30 14:07:53;;;;;;;7.13;6.53;;;;;;;;;;5056891;28;20201;-64
2022/04/30 14:10:22;;;;;;;6.70;6.10;;;;;;;;;;5060794;28;20259;-65
2022/04/30 14:12:53;;;;;;;7.00;6.40;;;;;;;;;;5059973;28;20253;-63
2022/04/30 14:15:21;;;;;;;7.90;6.70;;;;;;;;;;5044606;28;20213;-64
2022/04/30 14:20:35;;;;;;;7.23;6.63;;;;;;;;;;5071844;28;20243;-65
2022/04/30 14:23:02;;;;;;;7.07;6.47;;;;;;;;;;5044948;28;20326;-64
2022/04/30 14:25:30;;;;;;;7.40;6.80;;;;;;;;;;5035017;28;20696;-64
2022/04/30 14:27:58;;;;;;;7.60;6.80;;;;;;;;;;5046388;28;20281;-62
2022/04/30 14:30:25;;;;;;;7.93;7.23;;;;;;;;;;5047310;28;20201;-64
2022/04/30 14:32:53;;;;;;;9.30;8.40;;;;;;;;;;5056790;28;20198;-65
2022/04/30 14:35:20;;;;;;;7.60;6.90;;;;;;;;;;5049801;28;20639;-64
2022/04/30 14:37:47;;;;;;;8.83;8.03;;;;;;;;;;5049719;28;20247;-63
2022/04/30 14:40:16;;;;;;;8.20;7.47;;;;;;;;;;5054840;28;22595;-63
2022/04/30 14:42:48;;;;;;;8.83;8.03;;;;;;;;;;5056240;28;20201;-66
2022/04/30 14:45:17;;;;;;;8.50;7.70;;;;;;;;;;5048316;28;20668;-64
2022/04/30 14:47:44;;;;;;;7.53;6.93;;;;;;;;;;5040195;28;20217;-64
2022/04/30 14:50:12;;;;;;;7.23;6.57;;;;;;;;;;5059370;28;20213;-64
2022/04/30 14:52:39;;;;;;;7.43;6.53;;;;;;;;;;5057102;28;20224;-64
2022/04/30 14:55:07;;;;;;;7.27;6.57;;;;;;;;;;5052837;28;20225;-63
2022/04/30 14:57:35;;;;;;;7.03;6.33;;;;;;;;;;5046013;28;20357;-64
2022/04/30 15:00:03;;;;;;;7.03;6.43;;;;;;;;;;5056341;28;20243;-64
2022/04/30 15:02:30;;;;;;;6.40;5.90;;;;;;;;;;5050138;28;20258;-64
2022/04/30 15:04:58;;;;;;;6.33;5.83;;;;;;;;;;5054001;28;20232;-65
2022/04/30 15:07:25;;;;;;;6.00;5.50;;;;;;;;;;5061620;28;20225;-66
2022/04/30 15:09:53;;;;;;;5.50;5.03;;;;;;;;;;5074912;28;20263;-65
2022/04/30 15:12:22;;;;;;;6.07;5.57;;;;;;;;;;5044772;28;21847;-64
2022/04/30 15:14:51;;;;;;;6.00;5.50;;;;;;;;;;5043946;28;20271;-64
2022/04/30 15:17:19;;;;;;;5.57;5.07;;;;;;;;;;5047909;28;20251;-64
2022/04/30 15:19:46;;;;;;;5.23;4.83;;;;;;;;;;5056060;28;20236;-64
2022/04/30 15:22:14;;;;;;;4.90;4.40;;;;;;;;;;5057055;28;22498;-64
2022/04/30 15:24:42;;;;;;;4.37;4.07;;;;;;;;;;5053407;28;20687;-63
2022/04/30 15:27:10;;;;;;;4.80;4.40;;;;;;;;;;5059639;28;20305;-64
2022/04/30 15:29:38;;;;;;;5.10;4.70;;;;;;;;;;5041370;28;20507;-63
2022/04/30 15:32:06;;;;;;;5.23;4.83;;;;;;;;;;5052630;28;20197;-63